createdAt,value
2023-09-17T00:01:21.782Z,3.93
2023-09-17T00:03:49.305Z,3.20
2023-09-17T00:06:16.515Z,4.07
2023-09-17T00:08:43.552Z,3.40
2023-09-17T00:11:10.662Z,3.40
2023-09-17T00:13:39.196Z,3.90
2023-09-17T00:16:06.632Z,3.80
2023-09-17T00:18:33.573Z,3.63
2023-09-17T00:21:00.523Z,3.30
2023-09-17T00:23:27.384Z,3.53
2023-09-17T00:25:54.303Z,3.27
2023-09-17T00:28:21.142Z,3.40
2023-09-17T00:30:48.500Z,3.60
2023-09-17T00:33:15.358Z,3.40
2023-09-17T00:35:42.306Z,4.13
2023-09-17T00:38:10.641Z,3.53
2023-09-17T00:40:38.663Z,3.83
2023-09-17T00:43:05.810Z,3.97
2023-09-17T00:45:33.352Z,4.17
2023-09-17T00:48:01.679Z,3.43
2023-09-17T00:50:29.137Z,3.90
2023-09-17T00:52:56.190Z,3.60
2023-09-17T00:55:23.261Z,3.53
2023-09-17T00:57:51.456Z,3.90
2023-09-17T01:00:21.979Z,3.80
2023-09-17T01:02:49.733Z,3.87
2023-09-17T01:05:17.785Z,3.80
2023-09-17T01:07:45.837Z,3.60
2023-09-17T01:10:12.969Z,4.00
2023-09-17T01:12:41.074Z,3.67
2023-09-17T01:15:09.759Z,3.90
2023-09-17T01:17:36.814Z,3.73
2023-09-17T01:20:25.149Z,3.47
2023-09-17T01:22:57.106Z,3.53
2023-09-17T01:25:42.064Z,3.90
2023-09-17T01:28:12.338Z,3.70
2023-09-17T01:30:42.771Z,3.63
2023-09-17T01:33:13.269Z,3.47
2023-09-17T01:36:19.933Z,3.63
2023-09-17T01:38:55.482Z,3.53
2023-09-17T01:41:24.220Z,4.17
2023-09-17T01:43:52.171Z,4.30
2023-09-17T01:46:19.770Z,3.73
2023-09-17T01:48:48.538Z,4.17
2023-09-17T01:51:15.734Z,4.17
2023-09-17T01:53:43.105Z,3.80
2023-09-17T01:56:09.866Z,4.20
2023-09-17T01:58:38.037Z,3.50
2023-09-17T02:01:04.958Z,3.63
2023-09-17T02:03:32.227Z,4.10
2023-09-17T02:05:59.950Z,4.53
2023-09-17T02:08:27.044Z,4.93
2023-09-17T02:10:54.121Z,3.77
2023-09-17T02:13:21.074Z,3.90
2023-09-17T02:15:48.066Z,4.30
2023-09-17T02:18:16.199Z,4.70
2023-09-17T02:20:44.208Z,4.17
2023-09-17T02:23:11.504Z,4.30
2023-09-17T02:25:38.422Z,4.57
2023-09-17T02:28:05.371Z,4.53
2023-09-17T02:33:27.012Z,3.97
2023-09-17T02:35:54.729Z,3.50
2023-09-17T02:38:21.710Z,4.70
2023-09-17T02:40:48.549Z,4.23
2023-09-17T02:43:17.215Z,3.93
2023-09-17T02:45:44.203Z,4.00
2023-09-17T02:48:13.145Z,4.27
2023-09-17T02:50:43.298Z,3.53
2023-09-17T02:53:10.094Z,5.03
2023-09-17T02:55:36.902Z,4.57
2023-09-17T02:58:04.104Z,3.40
2023-09-17T03:00:35.042Z,3.70
2023-09-17T03:03:02.933Z,3.87
2023-09-17T03:05:29.858Z,3.93
2023-09-17T03:07:57.834Z,3.90
2023-09-17T03:10:25.115Z,4.57
2023-09-17T03:12:54.956Z,4.23
2023-09-17T03:15:21.933Z,3.50
2023-09-17T03:17:48.740Z,4.03
2023-09-17T03:20:18.432Z,4.97
2023-09-17T03:22:46.379Z,4.50
2023-09-17T03:25:14.204Z,4.27
2023-09-17T03:27:44.521Z,4.27
2023-09-17T03:30:12.887Z,4.53
2023-09-17T03:32:53.378Z,4.60
2023-09-17T03:35:26.322Z,4.67
2023-09-17T03:37:53.716Z,4.43
2023-09-17T03:40:20.812Z,3.97
2023-09-17T03:42:48.290Z,4.23
2023-09-17T03:45:15.679Z,3.90
2023-09-17T03:47:45.007Z,4.10
2023-09-17T03:50:15.115Z,4.30
2023-09-17T03:52:44.803Z,4.07
2023-09-17T03:55:12.453Z,4.77
2023-09-17T03:57:40.068Z,4.57
2023-09-17T04:00:11.394Z,4.27
2023-09-17T04:02:43.917Z,4.43
2023-09-17T04:05:13.577Z,4.63
2023-09-17T04:07:42.837Z,4.10
2023-09-17T04:10:10.979Z,5.07
2023-09-17T04:12:39.828Z,4.33
2023-09-17T04:15:11.547Z,4.40
2023-09-17T04:17:38.593Z,4.43
2023-09-17T04:20:12.370Z,4.87
2023-09-17T04:22:42.268Z,4.87
2023-09-17T04:25:11.135Z,4.67
2023-09-17T04:27:44.549Z,4.07
2023-09-17T04:30:16.257Z,4.07
2023-09-17T04:32:45.337Z,4.40
2023-09-17T04:35:17.226Z,3.93
2023-09-17T04:37:46.374Z,4.53
2023-09-17T04:40:13.308Z,4.10
2023-09-17T04:42:44.308Z,4.87
2023-09-17T04:45:31.568Z,4.97
2023-09-17T04:47:58.507Z,4.43
2023-09-17T04:50:26.529Z,4.60
2023-09-17T04:52:53.653Z,4.27
2023-09-17T04:55:20.819Z,4.80
2023-09-17T04:57:49.120Z,4.50
2023-09-17T05:00:16.203Z,5.30
2023-09-17T05:02:43.012Z,3.90
2023-09-17T05:05:11.622Z,4.43
2023-09-17T05:07:41.017Z,3.93
2023-09-17T05:10:08.928Z,5.10
2023-09-17T05:12:37.420Z,4.53
2023-09-17T05:15:04.943Z,4.17
2023-09-17T05:17:32.259Z,4.67
2023-09-17T05:20:00.003Z,4.43
2023-09-17T05:22:26.953Z,4.70
2023-09-17T05:24:54.444Z,4.30
2023-09-17T05:27:22.407Z,4.43
2023-09-17T05:29:49.315Z,4.77
2023-09-17T05:32:16.976Z,4.17
2023-09-17T05:34:45.514Z,5.10
2023-09-17T05:37:13.497Z,4.57
2023-09-17T05:39:40.409Z,4.30
2023-09-17T05:42:07.281Z,4.27
2023-09-17T05:44:34.089Z,4.40
2023-09-17T05:47:01.111Z,4.87
2023-09-17T05:49:28.176Z,4.40
2023-09-17T05:51:55.129Z,5.03
2023-09-17T05:54:22.897Z,5.20
2023-09-17T05:56:49.859Z,4.40
2023-09-17T05:59:18.601Z,4.40
2023-09-17T06:01:45.528Z,4.70
2023-09-17T06:04:12.412Z,4.90
2023-09-17T06:06:39.645Z,4.33
2023-09-17T06:09:06.990Z,4.67
2023-09-17T06:11:33.899Z,4.93
2023-09-17T06:14:00.861Z,4.57
2023-09-17T06:16:27.836Z,4.60
2023-09-17T06:18:55.968Z,4.90
2023-09-17T06:21:22.800Z,4.40
2023-09-17T06:23:49.923Z,5.03
2023-09-17T06:26:17.082Z,5.63
2023-09-17T06:28:44.138Z,4.67
2023-09-17T06:31:11.188Z,4.60
2023-09-17T06:33:38.199Z,4.63
2023-09-17T06:36:05.282Z,4.90
2023-09-17T06:38:32.417Z,4.93
2023-09-17T06:40:59.739Z,5.00
2023-09-17T06:43:27.338Z,4.97
2023-09-17T06:45:54.339Z,5.63
2023-09-17T06:48:21.230Z,5.60
2023-09-17T06:50:48.184Z,5.20
2023-09-17T06:53:15.246Z,5.67
2023-09-17T06:55:42.101Z,4.93
2023-09-17T06:58:09.939Z,6.10
2023-09-17T07:00:37.336Z,4.90
2023-09-17T07:03:04.473Z,5.33
2023-09-17T07:05:31.368Z,4.47
2023-09-17T07:07:58.223Z,5.80
2023-09-17T07:10:25.183Z,5.60
2023-09-17T07:12:53.048Z,6.17
2023-09-17T07:15:21.355Z,5.53
2023-09-17T07:17:51.012Z,4.97
2023-09-17T07:20:20.273Z,5.30
2023-09-17T07:22:50.410Z,5.70
2023-09-17T07:25:17.306Z,5.50
2023-09-17T07:27:44.099Z,5.43
2023-09-17T07:30:11.261Z,4.87
2023-09-17T07:32:38.551Z,5.90
2023-09-17T07:35:06.742Z,5.30
2023-09-17T07:37:49.566Z,5.37
2023-09-17T07:40:18.115Z,4.60
2023-09-17T07:42:45.244Z,5.37
2023-09-17T07:45:13.874Z,5.70
2023-09-17T07:47:40.853Z,4.50
2023-09-17T07:50:08.108Z,4.50
2023-09-17T07:52:34.896Z,5.40
2023-09-17T07:55:01.835Z,5.47
2023-09-17T07:57:28.728Z,4.63
2023-09-17T07:59:55.559Z,4.73
2023-09-17T08:02:22.411Z,5.27
2023-09-17T08:04:49.233Z,5.20
2023-09-17T08:07:17.608Z,5.17
2023-09-17T08:09:44.576Z,4.90
2023-09-17T08:12:11.365Z,5.17
2023-09-17T08:14:38.461Z,5.00
2023-09-17T08:17:05.589Z,5.20
2023-09-17T08:19:33.409Z,5.00
2023-09-17T08:22:00.335Z,4.77
2023-09-17T08:24:27.159Z,5.00
2023-09-17T08:26:54.333Z,5.13
2023-09-17T08:29:21.737Z,5.83
2023-09-17T08:31:48.633Z,5.07
2023-09-17T08:34:16.191Z,5.37
2023-09-17T08:36:43.430Z,5.40
2023-09-17T08:39:10.356Z,4.93
2023-09-17T08:41:37.213Z,4.70
2023-09-17T08:44:05.332Z,5.13
2023-09-17T08:46:33.346Z,5.53
2023-09-17T08:49:02.391Z,4.87
2023-09-17T08:51:34.513Z,4.40
2023-09-17T08:54:12.321Z,4.03
2023-09-17T08:56:43.955Z,4.87
2023-09-17T08:59:14.513Z,4.50
2023-09-17T09:01:45.520Z,5.07
2023-09-17T09:04:14.599Z,5.03
2023-09-17T09:06:44.163Z,4.90
2023-09-17T09:09:11.694Z,4.53
2023-09-17T09:11:39.023Z,4.63
2023-09-17T09:14:08.298Z,4.50
2023-09-17T09:16:38.785Z,4.43
2023-09-17T09:19:07.451Z,4.27
2023-09-17T09:21:34.543Z,4.30
2023-09-17T09:24:01.401Z,4.07
2023-09-17T09:26:35.687Z,4.20
2023-09-17T09:29:03.209Z,3.90
2023-09-17T09:31:30.829Z,3.97
2023-09-17T09:34:00.685Z,3.53
2023-09-17T09:36:33.941Z,3.83
2023-09-17T09:39:02.339Z,3.60
2023-09-17T09:41:34.424Z,3.23
2023-09-17T09:44:01.803Z,3.10
2023-09-17T09:46:29.851Z,3.80
2023-09-17T09:49:02.732Z,3.43
2023-09-17T09:51:33.025Z,3.40
2023-09-17T09:54:00.039Z,3.30
2023-09-17T09:56:30.012Z,3.40
2023-09-17T09:58:57.434Z,2.87
2023-09-17T10:01:24.828Z,3.10
2023-09-17T10:03:52.485Z,2.93
2023-09-17T10:06:20.959Z,3.23
2023-09-17T10:08:47.941Z,3.53
2023-09-17T10:11:15.924Z,3.10
2023-09-17T10:13:43.680Z,3.07
2023-09-17T10:16:11.479Z,3.17
2023-09-17T10:18:40.099Z,2.80
2023-09-17T10:21:07.061Z,2.70
2023-09-17T10:23:36.208Z,3.30
2023-09-17T10:26:04.342Z,3.07
2023-09-17T10:28:34.959Z,3.00
2023-09-17T10:31:02.848Z,2.20
2023-09-17T10:33:32.866Z,3.50
2023-09-17T10:36:02.978Z,3.30
2023-09-17T10:38:33.315Z,3.30
2023-09-17T10:41:01.856Z,2.80
2023-09-17T10:43:29.632Z,2.50
2023-09-17T10:45:57.747Z,3.03
2023-09-17T10:48:28.437Z,2.70
2023-09-17T10:50:55.905Z,2.77
2023-09-17T10:53:23.462Z,2.77
2023-09-17T10:56:00.515Z,2.40
2023-09-17T10:58:37.933Z,2.97
2023-09-17T11:01:09.924Z,3.23
2023-09-17T11:03:43.826Z,2.13
2023-09-17T11:06:17.974Z,2.00
2023-09-17T11:08:46.311Z,2.47
2023-09-17T11:11:17.447Z,2.20
2023-09-17T11:13:47.556Z,2.00
2023-09-17T11:16:19.467Z,2.20
2023-09-17T11:19:14.919Z,2.03
2023-09-17T11:21:43.870Z,2.23
2023-09-17T11:24:13.626Z,2.17
2023-09-17T11:26:43.089Z,2.60
2023-09-17T11:29:11.830Z,2.13
2023-09-17T11:31:54.121Z,2.10
2023-09-17T11:34:22.751Z,2.47
2023-09-17T11:36:49.689Z,2.10
2023-09-17T11:39:17.567Z,1.87
2023-09-17T11:41:52.286Z,1.93
2023-09-17T11:44:21.238Z,2.40
2023-09-17T11:46:48.499Z,1.83
2023-09-17T11:49:19.199Z,2.03
2023-09-17T11:51:48.089Z,2.00
2023-09-17T11:54:17.143Z,1.67
2023-09-17T11:56:55.185Z,1.93
2023-09-17T11:59:23.629Z,1.90
2023-09-17T12:01:56.532Z,1.87
2023-09-17T12:04:26.514Z,1.87
2023-09-17T12:06:54.779Z,1.83
2023-09-17T12:09:34.764Z,1.73
2023-09-17T12:12:01.619Z,1.90
2023-09-17T12:14:28.475Z,1.90
2023-09-17T12:16:56.104Z,2.20
2023-09-17T12:19:23.066Z,1.90
2023-09-17T12:21:56.216Z,2.20
2023-09-17T12:24:36.234Z,2.57
2023-09-17T12:27:09.643Z,2.10
2023-09-17T12:29:39.164Z,1.83
2023-09-17T12:32:06.865Z,1.70
2023-09-17T12:34:38.182Z,2.13
2023-09-17T12:37:08.542Z,1.70
2023-09-17T12:39:35.434Z,2.93
2023-09-17T12:42:02.641Z,2.03
2023-09-17T12:44:29.556Z,1.90
2023-09-17T12:46:56.750Z,2.27
2023-09-17T12:49:25.179Z,2.37
2023-09-17T12:51:55.151Z,1.80
2023-09-17T12:54:23.126Z,1.70
2023-09-17T12:56:53.837Z,2.50
2023-09-17T12:59:33.916Z,2.57
2023-09-17T13:02:02.577Z,1.67
2023-09-17T13:04:43.327Z,1.73
2023-09-17T13:07:22.002Z,2.07
2023-09-17T13:09:51.141Z,2.13
2023-09-17T13:12:24.015Z,1.80
2023-09-17T13:14:53.245Z,1.90
2023-09-17T13:17:24.446Z,2.10
2023-09-17T13:19:51.427Z,1.87
2023-09-17T13:22:20.206Z,2.13
2023-09-17T13:24:47.828Z,2.10
2023-09-17T13:27:18.839Z,2.23
2023-09-17T13:29:50.739Z,2.07
2023-09-17T13:32:19.507Z,1.70
2023-09-17T13:34:46.933Z,1.87
2023-09-17T13:37:14.449Z,1.77
2023-09-17T13:39:47.093Z,2.37
2023-09-17T13:42:14.128Z,2.40
2023-09-17T13:44:41.067Z,1.80
2023-09-17T13:47:10.770Z,2.13
2023-09-17T13:49:38.926Z,2.07
2023-09-17T13:52:06.936Z,1.67
2023-09-17T13:54:35.037Z,2.13
2023-09-17T13:57:02.012Z,2.10
2023-09-17T13:59:28.778Z,1.80
2023-09-17T14:01:55.736Z,2.80
2023-09-17T14:04:23.755Z,2.33
2023-09-17T14:06:55.571Z,2.60
2023-09-17T14:09:23.190Z,1.90
2023-09-17T14:11:50.080Z,2.40
2023-09-17T14:14:17.144Z,2.00
2023-09-17T14:16:45.462Z,2.23
2023-09-17T14:19:18.842Z,2.27
2023-09-17T14:21:46.793Z,2.00
2023-09-17T14:24:13.752Z,2.33
2023-09-17T14:26:40.553Z,1.83
2023-09-17T14:29:07.413Z,2.10
2023-09-17T14:31:34.336Z,1.67
2023-09-17T14:34:01.270Z,2.10
2023-09-17T14:36:28.163Z,2.10
2023-09-17T14:38:56.213Z,1.73
2023-09-17T14:41:23.383Z,2.10
2023-09-17T14:43:50.662Z,2.10
2023-09-17T14:46:17.483Z,1.60
2023-09-17T14:48:44.418Z,1.87
2023-09-17T14:51:11.210Z,1.83
2023-09-17T14:53:38.162Z,2.07
2023-09-17T14:56:05.185Z,2.23
2023-09-17T14:58:32.062Z,2.30
2023-09-17T15:01:00.895Z,2.10
2023-09-17T15:03:30.821Z,2.00
2023-09-17T15:05:58.001Z,2.17
2023-09-17T15:08:24.860Z,2.03
2023-09-17T15:10:52.131Z,2.00
2023-09-17T15:13:19.304Z,1.50
2023-09-17T15:15:49.002Z,1.80
2023-09-17T15:18:16.118Z,1.77
2023-09-17T15:20:47.186Z,2.30
2023-09-17T15:23:14.168Z,1.90
2023-09-17T15:25:41.008Z,2.20
2023-09-17T15:28:08.601Z,1.60
2023-09-17T15:30:35.551Z,2.30
2023-09-17T15:33:02.578Z,2.10
2023-09-17T15:35:30.459Z,2.10
2023-09-17T15:38:05.694Z,2.20
2023-09-17T15:40:32.798Z,1.73
2023-09-17T15:42:59.790Z,1.70
2023-09-17T15:45:26.562Z,1.80
2023-09-17T15:47:53.523Z,2.43
2023-09-17T15:50:20.782Z,1.50
2023-09-17T15:52:47.869Z,2.20
2023-09-17T15:55:17.443Z,2.50
2023-09-17T15:57:48.559Z,2.03
2023-09-17T16:00:15.775Z,1.80
2023-09-17T16:02:42.880Z,2.20
2023-09-17T16:05:10.214Z,2.10
2023-09-17T16:07:41.018Z,2.13
2023-09-17T16:10:08.738Z,2.27
2023-09-17T16:12:36.573Z,2.40
2023-09-17T16:15:03.942Z,2.40
2023-09-17T16:17:30.801Z,2.60
2023-09-17T16:19:57.810Z,2.23
2023-09-17T16:22:24.851Z,1.90
2023-09-17T16:24:51.905Z,2.27
2023-09-17T16:27:18.740Z,1.80
2023-09-17T16:29:45.536Z,2.37
2023-09-17T16:32:12.479Z,2.53
2023-09-17T16:34:39.531Z,1.70
2023-09-17T16:37:07.761Z,1.97
2023-09-17T16:39:34.868Z,1.70
2023-09-17T16:42:01.712Z,2.07
2023-09-17T16:44:28.574Z,2.00
2023-09-17T16:46:55.623Z,1.97
2023-09-17T16:49:22.913Z,2.00
2023-09-17T16:51:49.785Z,1.83
2023-09-17T16:54:18.898Z,2.20
2023-09-17T16:56:46.193Z,2.40
2023-09-17T16:59:13.861Z,2.63
2023-09-17T17:01:40.838Z,2.30
2023-09-17T17:04:08.002Z,2.10
2023-09-17T17:06:34.884Z,2.00
2023-09-17T17:09:01.716Z,1.70
2023-09-17T17:11:30.273Z,2.03
2023-09-17T17:13:57.750Z,2.00
2023-09-17T17:16:24.656Z,2.03
2023-09-17T17:18:51.529Z,1.60
2023-09-17T17:21:19.027Z,2.00
2023-09-17T17:23:45.922Z,1.60
2023-09-17T17:26:13.312Z,2.23
2023-09-17T17:28:40.560Z,2.10
2023-09-17T17:31:07.513Z,2.50
2023-09-17T17:33:34.391Z,1.67
2023-09-17T17:36:01.441Z,2.17
2023-09-17T17:38:28.364Z,2.40
2023-09-17T17:40:55.621Z,2.57
2023-09-17T17:43:22.488Z,2.67
2023-09-17T17:45:49.487Z,1.97
2023-09-17T17:48:16.543Z,1.93
2023-09-17T17:50:45.908Z,2.40
2023-09-17T17:53:13.672Z,2.50
2023-09-17T17:55:40.736Z,2.30
2023-09-17T17:58:07.679Z,1.77
2023-09-17T18:00:34.764Z,2.50
2023-09-17T18:03:01.687Z,2.10
2023-09-17T18:05:29.489Z,2.30
2023-09-17T18:07:56.388Z,1.90
2023-09-17T18:10:23.906Z,2.30
2023-09-17T18:12:50.797Z,2.70
2023-09-17T18:15:21.172Z,2.50
2023-09-17T18:17:48.904Z,2.30
2023-09-17T18:20:17.948Z,2.43
2023-09-17T18:22:45.158Z,2.50
2023-09-17T18:25:11.951Z,3.00
2023-09-17T18:27:39.016Z,2.30
2023-09-17T18:30:06.494Z,2.07
2023-09-17T18:32:34.898Z,2.60
2023-09-17T18:35:01.915Z,2.33
2023-09-17T18:37:29.079Z,2.20
2023-09-17T18:39:56.008Z,2.30
2023-09-17T18:42:23.217Z,2.47
2023-09-17T18:44:51.795Z,2.40
2023-09-17T18:47:20.622Z,2.70
2023-09-17T18:49:49.065Z,2.20
2023-09-17T18:52:15.987Z,2.80
2023-09-17T18:54:44.649Z,1.90
2023-09-17T18:57:12.229Z,2.90
2023-09-17T18:59:39.018Z,2.50
2023-09-17T19:02:05.972Z,2.53
2023-09-17T19:04:32.928Z,2.27
2023-09-17T19:06:59.714Z,2.57
2023-09-17T19:09:26.455Z,2.37
2023-09-17T19:11:53.231Z,2.80
2023-09-17T19:14:20.064Z,3.20
2023-09-17T19:16:47.176Z,2.43
2023-09-17T19:19:14.105Z,3.00
2023-09-17T19:21:40.912Z,2.63
2023-09-17T19:24:08.000Z,2.83
2023-09-17T19:26:34.774Z,2.47
2023-09-17T19:29:04.212Z,2.93
2023-09-17T19:31:31.089Z,3.10
2023-09-17T19:33:59.240Z,2.60
2023-09-17T19:36:26.227Z,2.20
2023-09-17T19:38:54.541Z,3.13
2023-09-17T19:41:21.395Z,1.93
2023-09-17T19:43:48.431Z,2.33
2023-09-17T19:46:15.313Z,2.80
2023-09-17T19:48:42.513Z,2.73
2023-09-17T19:51:12.175Z,2.50
2023-09-17T19:53:40.417Z,3.50
2023-09-17T19:56:07.214Z,3.30
2023-09-17T19:58:34.336Z,2.77
2023-09-17T20:01:03.720Z,2.47
2023-09-17T20:03:30.686Z,2.90
2023-09-17T20:05:57.647Z,2.70
2023-09-17T20:08:24.503Z,3.77
2023-09-17T20:10:51.293Z,3.40
2023-09-17T20:13:18.462Z,3.33
2023-09-17T20:15:49.072Z,2.90
2023-09-17T20:18:16.166Z,2.67
2023-09-17T20:20:47.433Z,2.70
2023-09-17T20:23:14.903Z,2.70
2023-09-17T20:25:42.331Z,3.17
2023-09-17T20:28:14.589Z,2.67
2023-09-17T20:30:42.357Z,2.63
2023-09-17T20:33:09.304Z,3.00
2023-09-17T20:35:39.074Z,2.83
2023-09-17T20:38:06.156Z,3.60
2023-09-17T20:40:33.525Z,2.97
2023-09-17T20:43:02.000Z,3.10
2023-09-17T20:45:28.953Z,3.03
2023-09-17T20:47:57.281Z,3.10
2023-09-17T20:50:24.603Z,2.87
2023-09-17T20:52:51.773Z,3.07
2023-09-17T20:55:18.758Z,2.87
2023-09-17T20:57:45.648Z,2.17
2023-09-17T21:00:13.215Z,2.97
2023-09-17T21:02:40.249Z,2.90
2023-09-17T21:05:07.439Z,3.00
2023-09-17T21:07:34.629Z,2.90
2023-09-17T21:10:01.448Z,2.83
2023-09-17T21:12:29.728Z,3.10
2023-09-17T21:14:56.672Z,3.27
2023-09-17T21:17:23.552Z,3.00
2023-09-17T21:19:50.508Z,3.73
2023-09-17T21:22:17.341Z,3.13
2023-09-17T21:24:44.439Z,3.10
2023-09-17T21:27:13.469Z,3.17
2023-09-17T21:29:40.274Z,3.00
2023-09-17T21:32:07.293Z,2.60
2023-09-17T21:34:34.137Z,2.43
2023-09-17T21:37:02.558Z,3.13
2023-09-17T21:39:29.852Z,2.67
2023-09-17T21:42:00.172Z,2.83
2023-09-17T21:44:27.150Z,2.90
2023-09-17T21:46:54.650Z,2.73
2023-09-17T21:49:22.137Z,2.80
2023-09-17T21:51:49.219Z,3.00
2023-09-17T21:54:16.142Z,2.70
2023-09-17T21:56:43.409Z,2.70
2023-09-17T21:59:10.396Z,2.80
2023-09-17T22:01:37.355Z,3.00
2023-09-17T22:04:04.530Z,3.17
2023-09-17T22:06:31.657Z,4.37
2023-09-17T22:08:58.900Z,4.17
2023-09-17T22:11:26.004Z,3.17
2023-09-17T22:13:52.929Z,2.57
2023-09-17T22:16:19.973Z,3.50
2023-09-17T22:18:46.811Z,2.80
2023-09-17T22:21:13.721Z,3.50
2023-09-17T22:23:40.595Z,3.03
2023-09-17T22:26:08.702Z,2.80
2023-09-17T22:28:36.081Z,3.20
2023-09-17T22:31:11.022Z,3.53
2023-09-17T22:33:37.958Z,3.00
2023-09-17T22:36:11.253Z,3.40
2023-09-17T22:38:45.281Z,3.20
2023-09-17T22:41:26.547Z,2.90
2023-09-17T22:43:59.767Z,3.10
2023-09-17T22:46:32.207Z,3.63
2023-09-17T22:48:59.701Z,3.67
2023-09-17T22:51:30.600Z,4.10
2023-09-17T22:54:00.618Z,2.90
2023-09-17T22:56:27.727Z,3.30
2023-09-17T22:58:55.040Z,4.07
2023-09-17T23:01:22.026Z,3.27
2023-09-17T23:03:49.032Z,3.93
2023-09-17T23:06:16.558Z,3.83
2023-09-17T23:08:43.416Z,3.03
2023-09-17T23:11:10.685Z,4.00
2023-09-17T23:13:37.710Z,3.60
2023-09-17T23:16:05.292Z,3.97
2023-09-17T23:18:33.830Z,3.77
2023-09-17T23:21:04.526Z,3.33
2023-09-17T23:23:31.707Z,3.13
2023-09-17T23:25:58.594Z,3.87
2023-09-17T23:28:26.619Z,3.73
2023-09-17T23:30:53.577Z,4.63
2023-09-17T23:33:21.301Z,3.63
2023-09-17T23:35:51.016Z,3.10
2023-09-17T23:38:18.814Z,4.00
2023-09-17T23:40:45.680Z,3.90
2023-09-17T23:43:13.068Z,4.90
2023-09-17T23:45:40.370Z,4.00
2023-09-17T23:48:07.945Z,4.37
2023-09-17T23:50:34.942Z,4.07
2023-09-17T23:53:05.470Z,4.70
2023-09-17T23:55:32.621Z,3.93
2023-09-17T23:57:59.741Z,3.93
